Aérodrome :
LOGIN :

S'inscrire | Disclaimer

   EN    FR    IT 

 










Légende :    VFR   VFR Marginal   IFR   IFR Intensif   IFR Très Intensif
Visi : 
Plafond : 
>= 8 km
>= 3000ft
5 à 8 km
1000 à 3000 ft
1500m à 5 km
500 à 1000 ft
800 à 1500m
200 à 500 ft
< 800m
< 200 ft
Symboles :   Orages  Brouillard  Fortes neiges  Fortes précipitations  Vent > 20 kt
SIGMETs :   Divers  Orages  Givrage  Turbulence  Onde Orograph.  Cendres Volcan.






- Altitude de l'aérodrome : 505 ft
- Code IATA : SXB


LFST - Strasbourg

DERNIER METAR :
  • 280830Z AUTO VRB02KT 0300 0200 R23/0400N R05/0375N FG VV/// 05/05 Q1021 BECMG 0800 FG

METARs EXPIRÉS :
  • 280800Z AUTO VRB02KT 0300 R23/0450N R05/0375N FG VV/// 05/04 Q1021 BECMG 0800 FG
  • 280730Z AUTO 22002KT 0350 0300 R23/0500N R05/0375N FG VV/// 04/04 Q1021 BECMG 0800 FG
  • 280700Z AUTO 19003KT 150V210 0350 0250 R23/0600N R05/0325N FG VV/// 04/04 Q1022 NOSIG
  • 280630Z AUTO VRB02KT 0400 0350 R23/0450N R05/0550U FG VV/// 04/04 Q1021 TEMPO 0300 FG
  • 280600Z AUTO VRB03KT 0400 R23/0450N R05/0500N FG VV/// 04/04 Q1021 TEMPO 0300 FG

TAF TAF LFST
Valide du 28 à 06h jusqu'au 29 à 06h UTC


280500Z 2806/2906 VRB03KT 0800 FG VV///
TEMPO 2806/2809 0300 FG
BECMG 2811/2813 CAVOK
BECMG 2817/2819 2000 BR BKN002
BECMG 2819/2821 0600 FG VV///
TEMPO 2821/2906 0300 FG



MET'MAP, la Météo Aéronautique d'un coup d'oeil ! - Copyright ORBIFLY Décembre 2007 - Disclaimer

ORBIFLY MET'MAP TEAM :

Programmation & Développement : Alexandra Zaïnal
Sur une idée originale de : Baudouin d'Aumeries
Assistance à la programmation : Marc-Olivier Méhu
Soutien technique & logistique : Manuel Goepfert

Contact : metmap@orbifly.com




SOURCES & CREDITS :

   NOAA